createdAt,value
2022-08-22T00:02:14.410Z,23.00
2022-08-22T00:03:02.385Z,8.52
2022-08-22T00:03:08.328Z,15.90
2022-08-22T00:05:09.484Z,41.58
2022-08-22T00:07:52.283Z,38.72
2022-08-22T00:10:43.402Z,29.90
2022-08-22T00:13:22.809Z,37.45
2022-08-22T00:15:57.564Z,31.33
2022-08-22T00:18:44.256Z,45.85
2022-08-22T00:21:16.392Z,41.85
2022-08-22T00:24:23.218Z,43.95
2022-08-22T00:27:04.505Z,50.03
2022-08-22T00:29:57.412Z,49.25
2022-08-22T00:32:59.990Z,49.45
2022-08-22T00:35:44.414Z,46.08
2022-08-22T00:38:47.743Z,55.55
2022-08-22T00:41:35.084Z,52.75
2022-08-22T00:44:15.166Z,57.97
2022-08-22T00:46:58.302Z,75.47
2022-08-22T00:49:43.581Z,63.95
2022-08-22T00:52:20.353Z,63.75
2022-08-22T00:54:50.704Z,52.28
2022-08-22T00:57:37.048Z,57.63
2022-08-22T01:03:39.279Z,45.67
2022-08-22T01:06:25.316Z,51.85
2022-08-22T01:09:01.864Z,48.33
2022-08-22T01:11:41.678Z,39.00
2022-08-22T01:14:34.886Z,42.42
2022-08-22T01:17:22.906Z,37.90
2022-08-22T01:20:28.250Z,45.92
2022-08-22T01:23:14.496Z,40.85
2022-08-22T01:26:05.617Z,44.97
2022-08-22T01:28:42.287Z,45.63
2022-08-22T01:31:49.873Z,40.58
2022-08-22T01:34:36.461Z,38.05
2022-08-22T01:37:33.119Z,42.45
2022-08-22T01:40:23.343Z,38.38
2022-08-22T01:43:58.951Z,42.70
2022-08-22T01:46:54.144Z,41.25
2022-08-22T01:49:30.985Z,37.70
2022-08-22T01:52:05.839Z,38.22
2022-08-22T01:55:00.262Z,34.97
2022-08-22T01:57:28.452Z,37.60
2022-08-22T01:59:59.976Z,37.65
2022-08-22T02:02:48.012Z,44.65
2022-08-22T02:05:25.220Z,45.33
2022-08-22T02:08:04.265Z,50.03
2022-08-22T02:11:14.831Z,40.42
2022-08-22T02:13:55.648Z,49.42
2022-08-22T02:16:43.780Z,61.00
2022-08-22T02:19:14.344Z,66.03
2022-08-22T02:21:50.608Z,61.03
2022-08-22T02:24:27.452Z,70.22
2022-08-22T02:27:32.155Z,82.32
2022-08-22T02:30:16.216Z,75.85
2022-08-22T02:32:44.357Z,83.05
2022-08-22T02:35:31.167Z,92.95
2022-08-22T02:38:21.671Z,95.30
2022-08-22T02:40:52.149Z,98.30
2022-08-22T02:43:45.114Z,98.85
2022-08-22T02:46:39.724Z,96.55
2022-08-22T02:49:51.430Z,96.78
2022-08-22T02:52:26.004Z,100.10
2022-08-22T02:55:07.188Z,111.70
2022-08-22T02:57:46.105Z,97.47
2022-08-22T03:00:32.641Z,106.68
2022-08-22T03:03:25.944Z,112.93
2022-08-22T03:06:10.019Z,102.05
2022-08-22T03:09:02.068Z,103.20
2022-08-22T03:11:36.984Z,101.85
2022-08-22T03:14:34.380Z,97.25
2022-08-22T03:17:16.608Z,92.07
2022-08-22T03:20:11.389Z,116.03
2022-08-22T03:22:55.824Z,92.28
2022-08-22T03:25:34.126Z,98.72
2022-08-22T03:28:24.777Z,98.20
2022-08-22T03:31:06.295Z,102.90
2022-08-22T03:33:34.143Z,103.57
2022-08-22T03:36:10.052Z,100.38
2022-08-22T03:38:44.850Z,92.60
2022-08-22T03:41:52.708Z,96.80
2022-08-22T03:44:36.243Z,97.35
2022-08-22T03:47:26.173Z,102.00
2022-08-22T03:50:05.279Z,98.22
2022-08-22T03:53:10.291Z,101.72
2022-08-22T03:56:12.339Z,96.22
2022-08-22T03:59:19.563Z,97.20
2022-08-22T04:02:31.454Z,92.80
2022-08-22T04:05:20.666Z,92.65
2022-08-22T04:07:48.680Z,90.72
2022-08-22T04:10:35.191Z,95.05
2022-08-22T04:13:14.910Z,96.20
2022-08-22T04:15:59.087Z,101.90
2022-08-22T04:21:38.860Z,98.03
2022-08-22T04:24:30.848Z,99.95
2022-08-22T04:27:05.360Z,100.75
2022-08-22T04:29:46.839Z,96.18
2022-08-22T04:32:42.984Z,92.53
2022-08-22T04:35:29.074Z,103.53
2022-08-22T04:38:08.987Z,89.25
2022-08-22T04:40:51.412Z,93.75
2022-08-22T04:43:39.569Z,92.93
2022-08-22T04:46:18.400Z,94.93
2022-08-22T04:49:44.847Z,95.82
2022-08-22T04:52:32.938Z,88.90
2022-08-22T04:55:03.831Z,98.63
2022-08-22T04:57:38.551Z,94.18
2022-08-22T05:00:09.311Z,91.63
2022-08-22T05:02:40.403Z,91.80
2022-08-22T05:05:16.080Z,96.50
2022-08-22T05:07:50.320Z,93.28
2022-08-22T05:10:51.320Z,97.45
2022-08-22T05:13:31.177Z,90.72
2022-08-22T05:16:03.475Z,94.82
2022-08-22T05:18:36.778Z,99.45
2022-08-22T05:21:07.468Z,101.18
2022-08-22T05:23:45.424Z,92.97
2022-08-22T05:26:14.160Z,110.07
2022-08-22T05:28:53.645Z,101.88
2022-08-22T05:31:26.477Z,107.35
2022-08-22T05:34:28.481Z,98.10
2022-08-22T05:37:10.970Z,102.57
2022-08-22T05:39:41.654Z,90.68
2022-08-22T05:42:18.524Z,98.75
2022-08-22T05:44:46.558Z,96.45
2022-08-22T05:47:27.899Z,101.20
2022-08-22T05:50:39.757Z,93.57
2022-08-22T05:53:10.028Z,101.32
2022-08-22T05:55:53.532Z,86.80
2022-08-22T05:58:39.726Z,97.55
2022-08-22T06:01:46.694Z,97.00
2022-08-22T06:04:23.596Z,94.35
2022-08-22T06:06:59.569Z,94.00
2022-08-22T06:09:34.669Z,86.70
2022-08-22T06:12:21.987Z,97.53
2022-08-22T06:15:13.376Z,87.03
2022-08-22T06:17:46.514Z,86.97
2022-08-22T06:20:24.630Z,86.72
2022-08-22T06:22:56.339Z,83.00
2022-08-22T06:25:37.941Z,76.00
2022-08-22T06:28:11.869Z,85.65
2022-08-22T06:30:40.160Z,81.90
2022-08-22T06:33:12.399Z,75.95
2022-08-22T06:36:07.635Z,80.00
2022-08-22T06:39:08.158Z,75.43
2022-08-22T06:41:48.407Z,83.07
2022-08-22T06:44:25.647Z,81.25
2022-08-22T06:46:58.746Z,79.22
2022-08-22T06:49:29.533Z,77.95
2022-08-22T06:52:02.331Z,74.00
2022-08-22T06:54:38.488Z,74.18
2022-08-22T06:57:07.172Z,70.00
2022-08-22T06:59:37.287Z,75.78
2022-08-22T07:02:23.696Z,75.22
2022-08-22T07:04:55.117Z,70.15
2022-08-22T07:07:26.680Z,70.57
2022-08-22T07:09:56.554Z,63.22
2022-08-22T07:12:32.510Z,72.78
2022-08-22T07:15:18.320Z,66.72
2022-08-22T07:17:57.569Z,63.08
2022-08-22T07:20:32.080Z,70.43
2022-08-22T07:23:06.906Z,64.25
2022-08-22T07:25:54.305Z,64.05
2022-08-22T07:28:51.485Z,64.05
2022-08-22T07:31:40.977Z,87.97
2022-08-22T07:34:53.633Z,71.55
2022-08-22T07:37:57.866Z,72.68
2022-08-22T07:40:46.941Z,69.85
2022-08-22T07:43:33.837Z,67.10
2022-08-22T07:46:36.302Z,68.45
2022-08-22T07:49:22.765Z,79.15
2022-08-22T07:51:54.586Z,72.32
2022-08-22T07:54:45.780Z,73.43
2022-08-22T07:57:32.359Z,66.95
2022-08-22T08:00:11.251Z,68.03
2022-08-22T08:02:51.005Z,62.03
2022-08-22T08:05:21.051Z,69.32
2022-08-22T08:07:53.175Z,64.55
2022-08-22T08:10:31.914Z,66.45
2022-08-22T08:13:04.391Z,65.35
2022-08-22T08:18:06.116Z,65.80
2022-08-22T08:20:36.057Z,69.32
2022-08-22T08:23:10.090Z,69.07
2022-08-22T08:26:00.457Z,70.05
2022-08-22T08:28:34.527Z,65.88
2022-08-22T08:31:28.124Z,63.75
2022-08-22T08:34:08.511Z,72.22
2022-08-22T08:36:57.108Z,69.82
2022-08-22T08:39:35.376Z,72.78
2022-08-22T08:42:14.956Z,61.80
2022-08-22T08:44:46.435Z,74.95
2022-08-22T08:47:33.428Z,73.70
2022-08-22T08:50:39.233Z,74.57
2022-08-22T08:53:32.957Z,82.43
2022-08-22T08:56:29.832Z,71.75
2022-08-22T08:59:33.111Z,76.15
2022-08-22T09:02:23.602Z,92.55
2022-08-22T09:05:28.010Z,71.05
2022-08-22T09:08:11.809Z,75.22
2022-08-22T09:10:58.428Z,71.65
2022-08-22T09:13:34.565Z,66.63
2022-08-22T09:16:15.794Z,68.82
2022-08-22T09:18:59.544Z,64.07
2022-08-22T09:21:30.829Z,66.97
2022-08-22T09:24:23.719Z,70.35
2022-08-22T09:26:57.091Z,64.20
2022-08-22T09:29:54.515Z,69.65
2022-08-22T09:32:44.128Z,67.22
2022-08-22T09:35:18.976Z,60.70
2022-08-22T09:38:29.178Z,65.68
2022-08-22T09:41:31.508Z,62.33
2022-08-22T09:44:39.909Z,63.15
2022-08-22T09:47:09.204Z,61.40
2022-08-22T09:49:37.073Z,55.25
2022-08-22T09:52:15.564Z,54.60
2022-08-22T09:55:13.425Z,48.53
2022-08-22T09:58:04.173Z,51.10
2022-08-22T10:00:54.955Z,52.40
2022-08-22T10:03:45.366Z,51.08
2022-08-22T10:06:20.376Z,50.30
2022-08-22T10:09:06.015Z,49.38
2022-08-22T10:11:46.553Z,44.58
2022-08-22T10:14:42.310Z,46.85
2022-08-22T10:17:41.095Z,44.08
2022-08-22T10:20:28.082Z,42.78
2022-08-22T10:23:10.938Z,43.92
2022-08-22T10:25:42.612Z,41.65
2022-08-22T10:28:28.486Z,39.95
2022-08-22T10:31:14.750Z,43.88
2022-08-22T10:34:03.674Z,40.38
2022-08-22T10:36:47.094Z,37.08
2022-08-22T10:39:37.566Z,40.00
2022-08-22T10:42:28.131Z,39.13
2022-08-22T10:45:35.291Z,35.72
2022-08-22T10:48:22.817Z,39.55
2022-08-22T10:50:55.899Z,32.97
2022-08-22T10:53:37.590Z,32.17
2022-08-22T10:56:21.303Z,28.67
2022-08-22T10:59:13.666Z,26.77
2022-08-22T11:02:08.367Z,22.67
2022-08-22T11:04:57.628Z,24.85
2022-08-22T11:07:48.580Z,22.92
2022-08-22T11:10:39.612Z,17.60
2022-08-22T11:13:50.966Z,14.43
2022-08-22T11:16:47.338Z,18.48
2022-08-22T11:19:21.296Z,21.05
2022-08-22T11:22:50.099Z,20.48
2022-08-22T11:25:52.630Z,20.33
2022-08-22T11:28:41.373Z,16.65
2022-08-22T11:31:23.323Z,15.57
2022-08-22T11:34:33.097Z,10.93
2022-08-22T11:37:20.704Z,15.32
2022-08-22T11:40:04.056Z,15.30
2022-08-22T11:42:47.559Z,14.10
2022-08-22T11:45:21.528Z,14.98
2022-08-22T11:48:30.504Z,24.33
2022-08-22T11:51:30.451Z,17.85
2022-08-22T11:54:18.252Z,23.85
2022-08-22T11:56:54.278Z,19.40
2022-08-22T11:59:25.230Z,28.33
2022-08-22T12:02:03.910Z,24.70
2022-08-22T12:04:34.618Z,17.00
2022-08-22T12:07:29.551Z,19.80
2022-08-22T12:10:13.818Z,26.63
2022-08-22T12:12:45.807Z,21.67
2022-08-22T12:15:34.674Z,18.50
2022-08-22T12:18:17.832Z,21.90
2022-08-22T12:21:16.401Z,16.23
2022-08-22T12:24:11.329Z,12.30
2022-08-22T12:27:28.823Z,17.25
2022-08-22T12:30:14.558Z,18.52
2022-08-22T12:33:23.104Z,14.57
2022-08-22T12:36:00.676Z,14.20
2022-08-22T12:39:07.667Z,9.65
2022-08-22T12:42:19.213Z,5.88
2022-08-22T12:45:36.553Z,7.33
2022-08-22T12:48:47.691Z,6.53
2022-08-22T12:51:25.025Z,10.23
2022-08-22T12:54:55.175Z,6.10
2022-08-22T12:58:43.111Z,3.75
2022-08-22T13:23:31.376Z,9.15
2022-08-22T13:29:25.115Z,7.88
2022-08-22T13:32:30.776Z,19.73
2022-08-22T13:36:03.201Z,8.88
2022-08-22T13:38:50.895Z,9.05
2022-08-22T13:44:40.695Z,4.72
2022-08-22T13:47:14.964Z,7.97
2022-08-22T13:49:46.745Z,6.35
2022-08-22T13:52:32.416Z,8.03
2022-08-22T13:55:13.666Z,12.13
2022-08-22T13:57:51.755Z,11.82
2022-08-22T14:00:28.856Z,7.43
2022-08-22T14:03:07.940Z,11.10
2022-08-22T14:05:44.653Z,18.38
2022-08-22T14:08:19.723Z,7.20
2022-08-22T14:11:18.967Z,13.02
2022-08-22T14:14:08.180Z,6.95
2022-08-22T14:16:40.111Z,9.07
2022-08-22T14:19:38.275Z,4.20
2022-08-22T14:22:34.596Z,8.40
2022-08-22T14:25:31.875Z,5.00
2022-08-22T14:28:06.344Z,5.57
2022-08-22T14:30:59.443Z,8.05
2022-08-22T14:33:34.192Z,4.55
2022-08-22T14:36:04.963Z,9.57
2022-08-22T14:38:32.794Z,8.93
2022-08-22T14:41:25.385Z,8.63
2022-08-22T14:43:58.943Z,10.25
2022-08-22T14:46:47.748Z,7.57
2022-08-22T14:49:43.431Z,6.53
2022-08-22T14:52:48.672Z,6.15
2022-08-22T14:55:24.101Z,15.05
2022-08-22T14:58:03.269Z,8.13
2022-08-22T15:00:37.962Z,11.48
2022-08-22T15:03:26.268Z,8.60
2022-08-22T15:06:04.549Z,9.50
2022-08-22T15:08:46.388Z,5.50
2022-08-22T15:11:26.068Z,4.97
2022-08-22T15:14:12.603Z,7.28
2022-08-22T15:17:05.448Z,10.38
2022-08-22T15:19:52.119Z,5.22
2022-08-22T15:22:27.833Z,4.72
2022-08-22T15:25:12.973Z,5.93
2022-08-22T15:27:55.121Z,5.22
2022-08-22T15:30:44.280Z,7.70
2022-08-22T15:33:18.913Z,9.93
2022-08-22T15:35:51.435Z,7.75
2022-08-22T15:38:42.116Z,10.23
2022-08-22T15:41:36.561Z,4.10
2022-08-22T15:44:14.880Z,6.88
2022-08-22T15:47:24.090Z,3.78
2022-08-22T15:50:02.079Z,6.38
2022-08-22T15:52:59.085Z,9.88
2022-08-22T15:55:34.529Z,6.15
2022-08-22T15:58:07.264Z,8.73
2022-08-22T16:01:05.224Z,6.65
2022-08-22T16:04:02.699Z,6.15
2022-08-22T16:06:49.592Z,8.63
2022-08-22T16:09:45.896Z,7.43
2022-08-22T16:12:48.759Z,6.72
2022-08-22T16:15:50.308Z,9.48
2022-08-22T16:18:37.287Z,8.38
2022-08-22T16:21:16.060Z,9.73
2022-08-22T16:23:46.536Z,13.35
2022-08-22T16:26:28.137Z,9.93
2022-08-22T16:29:12.532Z,9.48
2022-08-22T16:31:48.152Z,9.10
2022-08-22T16:34:38.267Z,5.57
2022-08-22T16:37:18.106Z,9.07
2022-08-22T16:39:51.776Z,5.65
2022-08-22T16:42:23.758Z,8.70
2022-08-22T16:45:32.830Z,10.63
2022-08-22T16:48:33.735Z,16.23
2022-08-22T16:51:15.149Z,15.60
2022-08-22T16:54:10.399Z,7.45
2022-08-22T16:57:14.664Z,12.38
2022-08-22T17:00:09.002Z,9.68
2022-08-22T17:03:01.088Z,11.32
2022-08-22T17:05:35.541Z,16.27
2022-08-22T17:08:14.599Z,14.38
2022-08-22T17:11:15.769Z,18.10
2022-08-22T17:13:51.815Z,7.63
2022-08-22T17:16:53.780Z,19.60
2022-08-22T17:20:03.693Z,13.57
2022-08-22T17:23:08.640Z,10.53
2022-08-22T17:25:45.793Z,20.48
2022-08-22T17:28:48.601Z,21.88
2022-08-22T17:31:49.000Z,21.00
2022-08-22T17:34:22.235Z,14.02
2022-08-22T17:37:27.384Z,23.30
2022-08-22T17:40:11.713Z,9.82
2022-08-22T17:42:48.402Z,13.82
2022-08-22T17:45:28.090Z,20.63
2022-08-22T17:48:18.935Z,12.88
2022-08-22T17:50:57.291Z,21.73
2022-08-22T17:53:27.956Z,12.75
2022-08-22T17:56:31.537Z,8.73
2022-08-22T17:59:37.733Z,13.50
2022-08-22T18:02:16.998Z,11.02
2022-08-22T18:05:07.143Z,10.95
2022-08-22T18:07:53.622Z,8.82
2022-08-22T18:10:54.785Z,11.88
2022-08-22T18:13:45.859Z,8.05
2022-08-22T18:16:16.609Z,5.88
2022-08-22T18:18:56.664Z,12.77
2022-08-22T18:21:49.137Z,11.57
2022-08-22T18:24:25.214Z,22.23
2022-08-22T18:26:52.994Z,12.10
2022-08-22T18:30:10.838Z,11.60
2022-08-22T18:32:54.954Z,9.70
2022-08-22T18:35:40.229Z,25.77
2022-08-22T18:38:40.085Z,15.35
2022-08-22T18:41:17.850Z,9.90
2022-08-22T18:43:48.360Z,9.38
2022-08-22T18:46:38.774Z,9.77
2022-08-22T18:49:24.786Z,10.63
2022-08-22T18:52:13.712Z,9.40
2022-08-22T18:55:06.488Z,11.13
2022-08-22T18:57:52.826Z,14.00
2022-08-22T19:00:34.885Z,9.38
2022-08-22T19:03:14.865Z,24.15
2022-08-22T19:06:00.585Z,7.93
2022-08-22T19:08:33.726Z,19.88
2022-08-22T19:11:16.554Z,7.68
2022-08-22T19:17:12.801Z,16.58
2022-08-22T19:20:19.753Z,8.07
2022-08-22T19:22:55.354Z,15.20
2022-08-22T19:25:27.940Z,12.85
2022-08-22T19:30:47.860Z,10.47
2022-08-22T19:33:29.296Z,8.48
2022-08-22T19:36:10.079Z,5.88
2022-08-22T19:38:53.170Z,9.70
2022-08-22T19:41:41.269Z,11.13
2022-08-22T19:44:11.769Z,7.68
2022-08-22T19:47:01.579Z,13.60
2022-08-22T19:49:32.660Z,13.63
2022-08-22T19:52:15.761Z,6.70
2022-08-22T19:55:24.055Z,13.65
2022-08-22T19:57:52.888Z,14.00
2022-08-22T20:00:23.432Z,12.63
2022-08-22T20:03:10.754Z,12.50
2022-08-22T20:05:58.641Z,10.98
2022-08-22T20:08:42.402Z,9.73
2022-08-22T20:11:26.575Z,9.20
2022-08-22T20:14:11.819Z,8.77
2022-08-22T20:17:10.596Z,8.88
2022-08-22T20:22:44.634Z,11.65
2022-08-22T20:25:42.842Z,12.20
2022-08-22T20:28:08.740Z,14.80
2022-08-22T20:30:40.722Z,11.27
2022-08-22T20:33:14.874Z,16.38
2022-08-22T20:35:55.145Z,18.92
2022-08-22T20:38:35.261Z,15.45
2022-08-22T20:41:21.086Z,17.48
2022-08-22T20:43:54.198Z,12.48
2022-08-22T20:46:53.217Z,16.58
2022-08-22T20:49:32.000Z,13.60
2022-08-22T20:52:03.717Z,16.90
2022-08-22T20:54:34.196Z,25.47
2022-08-22T20:57:16.158Z,23.27
2022-08-22T20:59:57.838Z,14.63
2022-08-22T21:02:39.888Z,18.20
2022-08-22T21:05:13.700Z,14.07
2022-08-22T21:07:44.253Z,19.42
2022-08-22T21:10:30.481Z,23.25
2022-08-22T21:13:19.728Z,30.80
2022-08-22T21:15:54.323Z,22.80
2022-08-22T21:18:34.272Z,22.67
2022-08-22T21:21:17.359Z,23.65
2022-08-22T21:23:48.744Z,23.52
2022-08-22T21:26:47.766Z,23.02
2022-08-22T21:29:15.560Z,25.45
2022-08-22T21:32:07.980Z,22.80
2022-08-22T21:34:41.352Z,19.67
2022-08-22T21:37:32.391Z,24.65
2022-08-22T21:40:39.942Z,31.58
2022-08-22T21:43:10.893Z,27.40
2022-08-22T21:45:38.658Z,27.85
2022-08-22T21:48:37.590Z,31.08
2022-08-22T21:51:40.965Z,31.73
2022-08-22T21:56:51.201Z,25.80
2022-08-22T21:59:50.809Z,31.50
2022-08-22T22:02:36.397Z,28.45
2022-08-22T22:05:09.187Z,29.52
2022-08-22T22:07:39.151Z,26.42
2022-08-22T22:10:10.407Z,29.55
2022-08-22T22:12:40.919Z,30.02
2022-08-22T22:15:10.635Z,31.85
2022-08-22T22:17:38.471Z,30.15
2022-08-22T22:20:07.837Z,29.23
2022-08-22T22:22:37.032Z,29.13
2022-08-22T22:25:39.855Z,30.55
2022-08-22T22:27:59.713Z,31.95
2022-08-22T22:30:27.656Z,33.83
2022-08-22T22:32:55.483Z,28.08
2022-08-22T22:35:23.284Z,29.75
2022-08-22T22:37:51.072Z,34.28
2022-08-22T22:40:19.264Z,31.02
2022-08-22T22:42:47.150Z,28.85
2022-08-22T22:45:14.956Z,30.23
2022-08-22T22:48:15.750Z,28.42
2022-08-22T22:50:54.817Z,24.60
2022-08-22T22:53:38.695Z,26.65
2022-08-22T22:56:15.845Z,25.88
2022-08-22T22:58:48.140Z,27.10
2022-08-22T23:01:24.153Z,27.77
2022-08-22T23:03:56.985Z,30.13
2022-08-22T23:06:26.800Z,26.67
2022-08-22T23:08:57.884Z,26.98
2022-08-22T23:11:28.425Z,26.08
2022-08-22T23:13:56.727Z,25.65
2022-08-22T23:16:28.022Z,25.63
2022-08-22T23:18:55.924Z,26.65
2022-08-22T23:21:27.205Z,22.40
2022-08-22T23:23:57.054Z,31.75
2022-08-22T23:26:25.319Z,26.17
2022-08-22T23:28:53.296Z,23.08
2022-08-22T23:31:37.406Z,23.55
2022-08-22T23:34:09.409Z,26.33
2022-08-22T23:36:38.127Z,22.85
2022-08-22T23:39:07.955Z,27.48
2022-08-22T23:41:37.156Z,28.40
2022-08-22T23:44:07.107Z,27.25
2022-08-22T23:46:37.023Z,26.03
2022-08-22T23:49:06.515Z,29.25
2022-08-22T23:51:37.797Z,27.15
2022-08-22T23:54:05.701Z,23.02
2022-08-22T23:56:35.571Z,26.10
2022-08-22T23:59:06.661Z,22.58
